GTI7ES HECA-LIMC
Flight info
| Callsign | GTI7ES |
|---|---|
| Flight time | N/A |
| Altitude | 38000 |
| Route | CVO L617 TANSA UL613 KOR/N0489F400 UL53 IXONI DCT OLGAT DCT PES DCT TUFTE DCT LOMED DCT BEROK DCT MIVKI DCT GOLAS DCT MEBUR |
| Aircraft | B742/H-SDFHIRWXY/L |
Departure
| Time | N/A |
|---|---|
| Airport | Cairo International Airport (HECA) |
Arrival
| Time | 2026-05-01 09:00 |
|---|---|
| Airport | Milan Malpensa International Airport (LIMC) |
| Time | Latitude | Longitude | Altitude | Speed | Heading |
|---|---|---|---|---|---|
| 2026-05-01 07:23 | 39.70728 | 19.93370 | 40038 ft | 393 kts | 304° |
| 2026-05-01 07:24 | 39.75711 | 19.84813 | 40059 ft | 390 kts | 303° |
| 2026-05-01 07:24 | 39.78983 | 19.79177 | 40046 ft | 390 kts | 304° |
| 2026-05-01 07:25 | 39.82317 | 19.73473 | 40043 ft | 391 kts | 304° |
| 2026-05-01 07:25 | 39.85549 | 19.67905 | 40046 ft | 376 kts | 304° |
| 2026-05-01 07:26 | 39.88700 | 19.62451 | 40059 ft | 371 kts | 304° |
| 2026-05-01 07:26 | 39.91789 | 19.57105 | 40047 ft | 354 kts | 304° |
| 2026-05-01 07:27 | 39.94716 | 19.52045 | 40055 ft | 337 kts | 303° |
| 2026-05-01 07:27 | 39.96109 | 19.49625 | 40046 ft | 325 kts | 303° |
| 2026-05-01 07:27 | 39.97480 | 19.47253 | 40062 ft | 319 kts | 304° |
| 2026-05-01 07:28 | 40.00172 | 19.42610 | 40070 ft | 321 kts | 304° |
| 2026-05-01 07:28 | 40.02927 | 19.37836 | 40063 ft | 328 kts | 304° |
| 2026-05-01 07:29 | 40.05718 | 19.32963 | 40062 ft | 336 kts | 303° |
| 2026-05-01 07:29 | 40.08569 | 19.27925 | 40065 ft | 345 kts | 304° |
| 2026-05-01 07:30 | 40.11509 | 19.22764 | 40064 ft | 354 kts | 304° |
| 2026-05-01 07:30 | 40.14509 | 19.17501 | 40072 ft | 362 kts | 304° |
| 2026-05-01 07:31 | 40.17573 | 19.12127 | 40075 ft | 370 kts | 304° |
| 2026-05-01 07:31 | 40.22309 | 19.03810 | 40075 ft | 382 kts | 304° |
| 2026-05-01 07:32 | 40.25488 | 18.98028 | 40070 ft | 390 kts | 301° |
| 2026-05-01 07:33 | 40.29996 | 18.88826 | 40078 ft | 403 kts | 301° |
| 2026-05-01 07:33 | 40.34665 | 18.79268 | 40084 ft | 417 kts | 301° |
| 2026-05-01 07:34 | 40.39482 | 18.69408 | 40099 ft | 431 kts | 301° |
| 2026-05-01 07:35 | 40.42791 | 18.62622 | 40094 ft | 440 kts | 301° |
| 2026-05-01 07:35 | 40.46129 | 18.55762 | 40101 ft | 444 kts | 301° |
| 2026-05-01 07:36 | 40.49477 | 18.48868 | 40102 ft | 436 kts | 301° |
| 2026-05-01 07:36 | 40.52738 | 18.42131 | 40107 ft | 438 kts | 301° |
| 2026-05-01 07:37 | 40.57693 | 18.31842 | 40116 ft | 440 kts | 301° |
| 2026-05-01 07:37 | 40.60966 | 18.24932 | 40120 ft | 439 kts | 301° |
| 2026-05-01 07:38 | 40.64250 | 18.18044 | 40126 ft | 442 kts | 301° |
| 2026-05-01 07:39 | 40.69202 | 18.07692 | 40121 ft | 440 kts | 301° |
| 2026-05-01 07:39 | 40.74138 | 17.97354 | 40147 ft | 443 kts | 301° |
| 2026-05-01 07:40 | 40.77441 | 17.90419 | 40146 ft | 442 kts | 301° |
| 2026-05-01 07:40 | 40.80726 | 17.83506 | 40143 ft | 440 kts | 301° |
| 2026-05-01 07:41 | 40.84002 | 17.76597 | 40153 ft | 444 kts | 301° |
| 2026-05-01 07:42 | 40.88937 | 17.66157 | 40158 ft | 441 kts | 301° |
| 2026-05-01 07:42 | 40.92233 | 17.59167 | 40159 ft | 443 kts | 301° |
| 2026-05-01 07:43 | 40.95524 | 17.52171 | 40167 ft | 444 kts | 301° |
| 2026-05-01 07:43 | 41.00442 | 17.41683 | 40169 ft | 444 kts | 301° |
| 2026-05-01 07:44 | 41.07000 | 17.27540 | 40175 ft | 442 kts | 301° |
| 2026-05-01 07:45 | 41.10235 | 17.20510 | 40181 ft | 443 kts | 301° |
| 2026-05-01 07:45 | 41.13470 | 17.13512 | 40183 ft | 447 kts | 301° |
| 2026-05-01 07:46 | 41.16743 | 17.06439 | 40185 ft | 444 kts | 301° |
| 2026-05-01 07:47 | 41.21645 | 16.95826 | 40195 ft | 447 kts | 301° |
| 2026-05-01 07:47 | 41.24905 | 16.88751 | 40197 ft | 446 kts | 301° |
| 2026-05-01 07:48 | 41.29800 | 16.78096 | 40201 ft | 447 kts | 301° |
| 2026-05-01 07:48 | 41.33072 | 16.70952 | 40200 ft | 447 kts | 301° |
| 2026-05-01 07:49 | 41.37946 | 16.60282 | 40207 ft | 447 kts | 301° |
| 2026-05-01 07:50 | 41.41218 | 16.53097 | 40199 ft | 448 kts | 301° |
| 2026-05-01 07:50 | 41.46107 | 16.42327 | 40214 ft | 448 kts | 301° |
| 2026-05-01 07:51 | 41.49366 | 16.35129 | 40208 ft | 450 kts | 301° |
| 2026-05-01 07:52 | 41.54211 | 16.24235 | 40217 ft | 449 kts | 301° |
| 2026-05-01 07:52 | 41.57448 | 16.16985 | 40224 ft | 451 kts | 301° |
| 2026-05-01 07:53 | 41.62319 | 16.06111 | 40220 ft | 450 kts | 301° |
| 2026-05-01 07:53 | 41.65569 | 15.98844 | 40220 ft | 452 kts | 301° |
| 2026-05-01 07:55 | 41.73689 | 15.80614 | 40213 ft | 452 kts | 301° |
| 2026-05-01 07:56 | 41.81818 | 15.62249 | 40221 ft | 452 kts | 301° |
| 2026-05-01 07:57 | 41.86675 | 15.51226 | 40235 ft | 456 kts | 301° |
| 2026-05-01 07:58 | 41.93156 | 15.36448 | 40239 ft | 457 kts | 301° |
| 2026-05-01 07:59 | 41.99592 | 15.21512 | 40241 ft | 456 kts | 301° |
| 2026-05-01 08:00 | 42.09256 | 14.99182 | 40262 ft | 456 kts | 301° |
| 2026-05-01 08:01 | 42.15738 | 14.84135 | 40269 ft | 459 kts | 301° |
| 2026-05-01 08:02 | 42.20573 | 14.72862 | 40275 ft | 457 kts | 301° |
| 2026-05-01 08:03 | 42.25396 | 14.61580 | 40282 ft | 459 kts | 301° |
| 2026-05-01 08:03 | 42.30198 | 14.50304 | 40284 ft | 457 kts | 302° |
| 2026-05-01 08:04 | 42.36601 | 14.35201 | 40299 ft | 458 kts | 302° |
| 2026-05-01 08:05 | 42.41317 | 14.23857 | 40307 ft | 458 kts | 301° |
| 2026-05-01 08:06 | 42.45780 | 14.12306 | 40307 ft | 460 kts | 297° |
| 2026-05-01 08:07 | 42.51289 | 13.96423 | 40302 ft | 461 kts | 297° |
| 2026-05-01 08:08 | 42.55432 | 13.84508 | 40296 ft | 460 kts | 298° |
| 2026-05-01 08:09 | 42.60909 | 13.68708 | 40273 ft | 458 kts | 298° |
| 2026-05-01 08:09 | 42.63638 | 13.60801 | 40271 ft | 459 kts | 298° |
| 2026-05-01 08:10 | 42.69353 | 13.45078 | 40253 ft | 455 kts | 307° |
| 2026-05-01 08:11 | 42.77148 | 13.31349 | 40234 ft | 457 kts | 309° |
| 2026-05-01 08:12 | 42.83007 | 13.20933 | 40221 ft | 456 kts | 310° |
| 2026-05-01 08:13 | 42.88863 | 13.10520 | 40229 ft | 456 kts | 310° |
| 2026-05-01 08:13 | 42.94706 | 13.00113 | 40252 ft | 458 kts | 310° |
| 2026-05-01 08:14 | 42.98600 | 12.93155 | 40265 ft | 456 kts | 310° |
| 2026-05-01 08:14 | 43.02509 | 12.86155 | 40280 ft | 456 kts | 310° |
| 2026-05-01 08:15 | 43.08318 | 12.75724 | 40293 ft | 454 kts | 310° |
| 2026-05-01 08:16 | 43.12159 | 12.68805 | 40297 ft | 454 kts | 310° |
| 2026-05-01 08:16 | 43.16019 | 12.61833 | 40292 ft | 453 kts | 310° |
| 2026-05-01 08:17 | 43.19835 | 12.54925 | 40299 ft | 451 kts | 310° |
| 2026-05-01 08:17 | 43.23690 | 12.47934 | 40302 ft | 455 kts | 310° |
| 2026-05-01 08:18 | 43.27540 | 12.40934 | 40297 ft | 452 kts | 310° |
| 2026-05-01 08:19 | 43.35113 | 12.27006 | 40285 ft | 454 kts | 309° |
| 2026-05-01 08:19 | 43.38875 | 12.20044 | 40288 ft | 450 kts | 309° |
| 2026-05-01 08:20 | 43.42652 | 12.13086 | 40291 ft | 448 kts | 310° |
| 2026-05-01 08:20 | 43.46412 | 12.06168 | 40310 ft | 450 kts | 310° |
| 2026-05-01 08:21 | 43.50195 | 11.99190 | 40309 ft | 447 kts | 310° |
| 2026-05-01 08:21 | 43.53936 | 11.92274 | 40280 ft | 444 kts | 310° |
| 2026-05-01 08:22 | 43.57681 | 11.85340 | 40289 ft | 449 kts | 310° |
| 2026-05-01 08:22 | 43.61459 | 11.78318 | 40318 ft | 447 kts | 310° |
| 2026-05-01 08:23 | 43.65174 | 11.71387 | 40325 ft | 445 kts | 310° |
| 2026-05-01 08:23 | 43.68897 | 11.64435 | 40337 ft | 445 kts | 310° |
| 2026-05-01 08:24 | 43.72605 | 11.57500 | 40335 ft | 444 kts | 310° |
| 2026-05-01 08:24 | 43.76181 | 11.50793 | 40346 ft | 433 kts | 310° |
| 2026-05-01 08:24 | 43.77960 | 11.47444 | 40358 ft | 418 kts | 310° |
| 2026-05-01 08:25 | 43.79673 | 11.44216 | 40334 ft | 406 kts | 310° |
| 2026-05-01 08:25 | 43.83038 | 11.37881 | 40338 ft | 408 kts | 310° |
| 2026-05-01 08:26 | 43.86451 | 11.31413 | 40368 ft | 418 kts | 309° |
| 2026-05-01 08:26 | 43.89908 | 11.24770 | 40355 ft | 417 kts | 309° |
| 2026-05-01 08:27 | 43.93283 | 11.18317 | 40361 ft | 409 kts | 310° |
| 2026-05-01 08:27 | 43.96669 | 11.11869 | 40325 ft | 410 kts | 310° |
| 2026-05-01 08:28 | 44.00084 | 11.05367 | 40320 ft | 413 kts | 309° |
| 2026-05-01 08:28 | 44.03078 | 10.98542 | 40306 ft | 417 kts | 296° |
| 2026-05-01 08:28 | 44.04037 | 10.94689 | 40004 ft | 426 kts | 293° |
| 2026-05-01 08:29 | 44.04895 | 10.90701 | 39649 ft | 422 kts | 292° |
| 2026-05-01 08:29 | 44.05708 | 10.86776 | 39154 ft | 416 kts | 292° |
| 2026-05-01 08:29 | 44.06510 | 10.82904 | 38612 ft | 410 kts | 292° |
| 2026-05-01 08:29 | 44.07308 | 10.79084 | 38060 ft | 405 kts | 292° |
| 2026-05-01 08:30 | 44.08102 | 10.75313 | 37495 ft | 400 kts | 293° |
| 2026-05-01 08:30 | 44.08882 | 10.71628 | 36931 ft | 396 kts | 294° |
| 2026-05-01 08:30 | 44.09660 | 10.67963 | 36380 ft | 395 kts | 294° |
| 2026-05-01 08:30 | 44.10434 | 10.64324 | 35952 ft | 393 kts | 294° |
| 2026-05-01 08:31 | 44.11213 | 10.60655 | 35538 ft | 392 kts | 294° |
| 2026-05-01 08:31 | 44.11973 | 10.57074 | 35137 ft | 391 kts | 294° |
| 2026-05-01 08:31 | 44.12745 | 10.53429 | 34710 ft | 393 kts | 295° |
| 2026-05-01 08:31 | 44.13534 | 10.49701 | 34270 ft | 395 kts | 295° |
| 2026-05-01 08:32 | 44.14309 | 10.46027 | 33808 ft | 395 kts | 295° |
| 2026-05-01 08:32 | 44.15080 | 10.42362 | 33341 ft | 393 kts | 295° |
| 2026-05-01 08:32 | 44.15849 | 10.38698 | 32878 ft | 391 kts | 295° |
| 2026-05-01 08:32 | 44.16630 | 10.35005 | 32405 ft | 400 kts | 296° |
| 2026-05-01 08:33 | 44.17466 | 10.31317 | 31955 ft | 417 kts | 294° |
| 2026-05-01 08:33 | 44.18274 | 10.27329 | 31480 ft | 421 kts | 292° |
| 2026-05-01 08:33 | 44.19058 | 10.23357 | 31078 ft | 415 kts | 293° |
| 2026-05-01 08:33 | 44.19833 | 10.19492 | 30682 ft | 409 kts | 293° |
| 2026-05-01 08:34 | 44.20608 | 10.15703 | 30293 ft | 405 kts | 293° |
| 2026-05-01 08:34 | 44.21386 | 10.11942 | 29899 ft | 400 kts | 294° |
| 2026-05-01 08:34 | 44.22204 | 10.08212 | 29488 ft | 391 kts | 299° |
| 2026-05-01 08:34 | 44.23450 | 10.04890 | 29086 ft | 378 kts | 311° |
| 2026-05-01 08:35 | 44.24948 | 10.01882 | 28605 ft | 375 kts | 314° |
| 2026-05-01 08:35 | 44.26493 | 9.98953 | 28121 ft | 373 kts | 314° |
| 2026-05-01 08:35 | 44.28049 | 9.95998 | 27624 ft | 372 kts | 314° |
| 2026-05-01 08:35 | 44.29583 | 9.93046 | 27135 ft | 370 kts | 314° |
| 2026-05-01 08:36 | 44.31088 | 9.90124 | 26644 ft | 369 kts | 313° |
| 2026-05-01 08:36 | 44.32588 | 9.87196 | 26150 ft | 367 kts | 313° |
| 2026-05-01 08:36 | 44.34069 | 9.84293 | 25659 ft | 366 kts | 313° |
| 2026-05-01 08:36 | 44.35561 | 9.81367 | 25174 ft | 364 kts | 313° |
| 2026-05-01 08:37 | 44.37029 | 9.78486 | 24691 ft | 362 kts | 313° |
| 2026-05-01 08:37 | 44.38486 | 9.75622 | 24204 ft | 361 kts | 313° |
| 2026-05-01 08:37 | 44.39959 | 9.72724 | 23709 ft | 359 kts | 313° |
| 2026-05-01 08:37 | 44.41426 | 9.69835 | 23216 ft | 358 kts | 313° |
| 2026-05-01 08:38 | 44.42875 | 9.66981 | 22724 ft | 356 kts | 313° |
| 2026-05-01 08:38 | 44.44313 | 9.64146 | 22240 ft | 355 kts | 313° |
| 2026-05-01 08:38 | 44.45788 | 9.61354 | 21759 ft | 351 kts | 318° |
| 2026-05-01 08:38 | 44.47465 | 9.58810 | 21265 ft | 348 kts | 321° |
| 2026-05-01 08:39 | 44.49179 | 9.56370 | 20784 ft | 346 kts | 322° |
| 2026-05-01 08:39 | 44.50881 | 9.53944 | 20311 ft | 346 kts | 321° |
| 2026-05-01 08:39 | 44.52566 | 9.51517 | 19830 ft | 344 kts | 321° |
| 2026-05-01 08:39 | 44.54263 | 9.49056 | 19341 ft | 343 kts | 321° |
| 2026-05-01 08:40 | 44.57590 | 9.44208 | 18388 ft | 340 kts | 320° |
| 2026-05-01 08:40 | 44.59224 | 9.41823 | 17927 ft | 338 kts | 320° |
| 2026-05-01 08:40 | 44.60875 | 9.39409 | 17454 ft | 337 kts | 320° |
| 2026-05-01 08:41 | 44.62505 | 9.37025 | 16991 ft | 335 kts | 320° |
| 2026-05-01 08:41 | 44.64117 | 9.34665 | 16447 ft | 336 kts | 319° |
| 2026-05-01 08:41 | 44.65712 | 9.32298 | 15899 ft | 337 kts | 318° |
| 2026-05-01 08:41 | 44.67331 | 9.29883 | 15277 ft | 330 kts | 318° |
| 2026-05-01 08:42 | 44.68914 | 9.27535 | 14575 ft | 321 kts | 318° |
| 2026-05-01 08:42 | 44.70451 | 9.25269 | 13881 ft | 313 kts | 318° |
| 2026-05-01 08:42 | 44.71946 | 9.23071 | 13196 ft | 307 kts | 318° |
| 2026-05-01 08:42 | 44.73411 | 9.20919 | 12485 ft | 303 kts | 317° |
| 2026-05-01 08:43 | 44.74889 | 9.18744 | 11748 ft | 299 kts | 317° |
| 2026-05-01 08:43 | 44.76276 | 9.16593 | 11023 ft | 295 kts | 315° |
| 2026-05-01 08:43 | 44.77837 | 9.14730 | 10204 ft | 291 kts | 328° |
| 2026-05-01 08:43 | 44.79522 | 9.13159 | 9285 ft | 294 kts | 328° |
| 2026-05-01 08:44 | 44.81235 | 9.11548 | 8352 ft | 297 kts | 328° |
| 2026-05-01 08:44 | 44.82941 | 9.09904 | 7409 ft | 298 kts | 327° |
| 2026-05-01 08:44 | 44.84635 | 9.08247 | 6593 ft | 293 kts | 327° |
| 2026-05-01 08:44 | 44.86301 | 9.06608 | 5933 ft | 284 kts | 327° |
| 2026-05-01 08:45 | 44.87912 | 9.05021 | 5339 ft | 275 kts | 327° |
| 2026-05-01 08:45 | 44.89452 | 9.03502 | 4950 ft | 261 kts | 327° |
| 2026-05-01 08:45 | 44.90907 | 9.02065 | 4580 ft | 250 kts | 328° |
| 2026-05-01 08:45 | 44.92299 | 9.00691 | 4389 ft | 232 kts | 328° |
| 2026-05-01 08:46 | 44.93571 | 8.99440 | 4343 ft | 214 kts | 328° |
| 2026-05-01 08:46 | 44.94801 | 8.98231 | 4350 ft | 212 kts | 328° |
| 2026-05-01 08:46 | 44.96028 | 8.97021 | 4349 ft | 213 kts | 328° |
| 2026-05-01 08:46 | 44.97284 | 8.95782 | 4351 ft | 220 kts | 328° |
| 2026-05-01 08:47 | 44.98535 | 8.94544 | 4348 ft | 220 kts | 328° |
| 2026-05-01 08:47 | 44.99814 | 8.93277 | 4357 ft | 221 kts | 328° |
| 2026-05-01 08:47 | 45.01075 | 8.92027 | 4346 ft | 220 kts | 328° |
| 2026-05-01 08:47 | 45.02329 | 8.90784 | 4346 ft | 221 kts | 328° |
| 2026-05-01 08:48 | 45.03604 | 8.89519 | 4350 ft | 221 kts | 328° |
| 2026-05-01 08:48 | 45.05002 | 8.88652 | 4206 ft | 220 kts | 350° |
| 2026-05-01 08:48 | 45.06506 | 8.88254 | 4060 ft | 215 kts | 352° |
| 2026-05-01 08:48 | 45.07991 | 8.87870 | 4032 ft | 217 kts | 352° |
| 2026-05-01 08:49 | 45.09481 | 8.87475 | 4034 ft | 216 kts | 352° |
| 2026-05-01 08:49 | 45.10979 | 8.87074 | 4036 ft | 216 kts | 352° |
| 2026-05-01 08:49 | 45.12469 | 8.86672 | 4032 ft | 216 kts | 352° |
| 2026-05-01 08:49 | 45.13965 | 8.86267 | 4030 ft | 217 kts | 352° |
| 2026-05-01 08:50 | 45.15462 | 8.85862 | 4030 ft | 217 kts | 352° |
| 2026-05-01 08:50 | 45.16943 | 8.85460 | 4035 ft | 217 kts | 352° |
| 2026-05-01 08:50 | 45.18435 | 8.85055 | 4034 ft | 217 kts | 352° |
| 2026-05-01 08:50 | 45.19946 | 8.84644 | 4043 ft | 217 kts | 352° |
| 2026-05-01 08:51 | 45.21442 | 8.84237 | 4053 ft | 217 kts | 352° |
| 2026-05-01 08:51 | 45.22919 | 8.83835 | 4050 ft | 218 kts | 352° |
| 2026-05-01 08:51 | 45.24432 | 8.83423 | 4043 ft | 218 kts | 352° |
| 2026-05-01 08:51 | 45.25903 | 8.83023 | 4040 ft | 213 kts | 351° |
| 2026-05-01 08:52 | 45.27333 | 8.82632 | 4044 ft | 209 kts | 352° |
| 2026-05-01 08:52 | 45.28787 | 8.82236 | 4046 ft | 209 kts | 351° |
| 2026-05-01 08:52 | 45.30228 | 8.81844 | 4046 ft | 210 kts | 351° |
| 2026-05-01 08:52 | 45.31678 | 8.81450 | 4054 ft | 210 kts | 351° |
| 2026-05-01 08:53 | 45.33093 | 8.81065 | 4033 ft | 210 kts | 351° |
| 2026-05-01 08:53 | 45.34544 | 8.80670 | 3855 ft | 209 kts | 351° |
| 2026-05-01 08:53 | 45.35986 | 8.80277 | 3672 ft | 209 kts | 351° |
| 2026-05-01 08:53 | 45.37425 | 8.79914 | 3457 ft | 209 kts | 354° |
| 2026-05-01 08:54 | 45.38882 | 8.79628 | 3174 ft | 208 kts | 355° |
| 2026-05-01 08:54 | 45.40321 | 8.79348 | 3075 ft | 208 kts | 355° |
| 2026-05-01 08:54 | 45.41757 | 8.79068 | 3057 ft | 207 kts | 355° |
| 2026-05-01 08:54 | 45.43199 | 8.78785 | 3060 ft | 209 kts | 354° |
| 2026-05-01 08:55 | 45.44634 | 8.78424 | 3060 ft | 210 kts | 351° |
| 2026-05-01 08:55 | 45.46078 | 8.78030 | 3064 ft | 204 kts | 351° |
| 2026-05-01 08:55 | 45.47413 | 8.77658 | 3061 ft | 185 kts | 352° |
| 2026-05-01 08:55 | 45.48617 | 8.77323 | 3048 ft | 166 kts | 352° |
| 2026-05-01 08:56 | 45.49697 | 8.77026 | 3002 ft | 163 kts | 352° |
| 2026-05-01 08:56 | 45.50805 | 8.76722 | 2806 ft | 156 kts | 352° |
| 2026-05-01 08:56 | 45.51888 | 8.76425 | 2624 ft | 156 kts | 352° |
| 2026-05-01 08:56 | 45.52965 | 8.76129 | 2427 ft | 158 kts | 351° |
| 2026-05-01 08:57 | 45.54036 | 8.75833 | 2210 ft | 153 kts | 351° |
| 2026-05-01 08:57 | 45.55051 | 8.75552 | 1985 ft | 144 kts | 351° |
| 2026-05-01 08:57 | 45.56007 | 8.75290 | 1795 ft | 144 kts | 351° |
| 2026-05-01 08:57 | 45.56982 | 8.75015 | 1653 ft | 138 kts | 350° |
| 2026-05-01 08:58 | 45.57906 | 8.74737 | 1387 ft | 134 kts | 351° |
| 2026-05-01 08:58 | 45.58889 | 8.74477 | 1238 ft | 140 kts | 351° |
| 2026-05-01 08:58 | 45.59840 | 8.74225 | 1032 ft | 136 kts | 352° |
| 2026-05-01 08:58 | 45.60755 | 8.73972 | 871 ft | 132 kts | 351° |
| 2026-05-01 08:59 | 45.61673 | 8.73723 | 717 ft | 134 kts | 351° |
| 2026-05-01 08:59 | 45.62517 | 8.73493 | 722 ft | 105 kts | 349° |
| 2026-05-01 08:59 | 45.63067 | 8.73341 | 734 ft | 54 kts | 349° |
| 2026-05-01 08:59 | 45.63421 | 8.73242 | 741 ft | 62 kts | 348° |
| 2026-05-01 09:00 | 45.63720 | 8.73070 | 748 ft | 26 kts | 316° |
| 2026-05-01 09:00 | 45.63835 | 8.72880 | 751 ft | 24 kts | 304° |
| 2026-05-01 09:00 | 45.63927 | 8.72686 | 754 ft | 22 kts | 303° |
| 2026-05-01 09:00 | 45.63951 | 8.72481 | 756 ft | 20 kts | 260° |
| 2026-05-01 09:01 | 45.63924 | 8.72280 | 757 ft | 20 kts | 264° |
| 2026-05-01 09:01 | 45.63916 | 8.72083 | 759 ft | 19 kts | 271° |
| 2026-05-01 09:01 | 45.63896 | 8.71898 | 760 ft | 18 kts | 253° |
| 2026-05-01 09:01 | 45.63797 | 8.71826 | 758 ft | 17 kts | 171° |
| 2026-05-01 09:02 | 45.63696 | 8.71852 | 755 ft | 15 kts | 171° |
| 2026-05-01 09:02 | 45.63586 | 8.71878 | 752 ft | 16 kts | 167° |
| 2026-05-01 09:02 | 45.63486 | 8.71911 | 749 ft | 10 kts | 169° |
| 2026-05-01 09:02 | 45.63411 | 8.71932 | 748 ft | 12 kts | 169° |
| 2026-05-01 09:03 | 45.63359 | 8.71946 | 747 ft | 3 kts | 171° |
| 2026-05-01 09:03 | 45.63311 | 8.71958 | 746 ft | 12 kts | 169° |
| 2026-05-01 09:03 | 45.63208 | 8.71988 | 744 ft | 17 kts | 169° |
| 2026-05-01 09:03 | 45.63070 | 8.72025 | 741 ft | 21 kts | 169° |
| 2026-05-01 09:04 | 45.62917 | 8.72068 | 739 ft | 17 kts | 169° |
| 2026-05-01 09:04 | 45.62828 | 8.72092 | 737 ft | 13 kts | 169° |
| 2026-05-01 09:04 | 45.62727 | 8.72118 | 735 ft | 17 kts | 168° |
| 2026-05-01 09:04 | 45.62594 | 8.72157 | 733 ft | 20 kts | 168° |
| 2026-05-01 09:05 | 45.62448 | 8.72196 | 729 ft | 17 kts | 168° |
| 2026-05-01 09:05 | 45.62373 | 8.72150 | 729 ft | 9 kts | 255° |
| 2026-05-01 09:05 | 45.62360 | 8.72060 | 729 ft | 9 kts | 260° |
| 2026-05-01 09:05 | 45.62345 | 8.71960 | 730 ft | 13 kts | 246° |
| 2026-05-01 09:06 | 45.62259 | 8.71938 | 728 ft | 14 kts | 169° |
| 2026-05-01 09:06 | 45.62161 | 8.71965 | 726 ft | 9 kts | 167° |
| 2026-05-01 09:06 | 45.62119 | 8.71923 | 726 ft | 8 kts | 244° |
| 2026-05-01 09:06 | 45.62113 | 8.71893 | 726 ft | 1 kts | 261° |
| 2026-05-01 09:07 | 45.62110 | 8.71868 | 726 ft | 3 kts | 260° |
| 2026-05-01 09:07 | 45.62107 | 8.71843 | 726 ft | 0 kts | 259° |